sensor_id;sensor_type;location;lat;lon;timestamp;temperature;humidity
7512;DHT22;9999;48.780;9.146;2022-08-27T00:01:19;18.70;99.90
7512;DHT22;9999;48.780;9.146;2022-08-27T00:03:46;18.60;99.90
7512;DHT22;9999;48.780;9.146;2022-08-27T00:06:15;18.60;99.90
7512;DHT22;9999;48.780;9.146;2022-08-27T00:08:43;18.60;99.90
7512;DHT22;9999;48.780;9.146;2022-08-27T00:11:11;18.60;99.90
7512;DHT22;9999;48.780;9.146;2022-08-27T00:13:39;18.60;99.90
7512;DHT22;9999;48.780;9.146;2022-08-27T00:16:08;18.60;99.90
7512;DHT22;9999;48.780;9.146;2022-08-27T00:18:37;18.70;99.90
7512;DHT22;9999;48.780;9.146;2022-08-27T00:21:05;18.70;99.90
7512;DHT22;9999;48.780;9.146;2022-08-27T00:23:32;18.80;99.90
7512;DHT22;9999;48.780;9.146;2022-08-27T00:25:59;18.80;99.90
7512;DHT22;9999;48.780;9.146;2022-08-27T00:28:26;18.90;99.90
7512;DHT22;9999;48.780;9.146;2022-08-27T00:30:53;18.80;99.90
7512;DHT22;9999;48.780;9.146;2022-08-27T00:33:21;18.90;99.90
7512;DHT22;9999;48.780;9.146;2022-08-27T00:35:49;19.00;99.90
7512;DHT22;9999;48.780;9.146;2022-08-27T00:38:16;18.90;99.90
7512;DHT22;9999;48.780;9.146;2022-08-27T00:40:43;19.00;99.90
7512;DHT22;9999;48.780;9.146;2022-08-27T00:43:11;18.90;99.90
7512;DHT22;9999;48.780;9.146;2022-08-27T00:45:41;18.90;99.90
7512;DHT22;9999;48.780;9.146;2022-08-27T00:48:12;18.80;99.90
7512;DHT22;9999;48.780;9.146;2022-08-27T00:50:42;18.90;99.90
7512;DHT22;9999;48.780;9.146;2022-08-27T00:53:15;18.90;99.90
7512;DHT22;9999;48.780;9.146;2022-08-27T00:55:46;18.80;99.90
7512;DHT22;9999;48.780;9.146;2022-08-27T00:58:16;18.80;99.90
7512;DHT22;9999;48.780;9.146;2022-08-27T01:00:45;18.80;99.90
7512;DHT22;9999;48.780;9.146;2022-08-27T01:03:12;18.80;99.90
7512;DHT22;9999;48.780;9.146;2022-08-27T01:05:40;18.80;99.90
7512;DHT22;9999;48.780;9.146;2022-08-27T01:08:10;18.80;99.90
7512;DHT22;9999;48.780;9.146;2022-08-27T01:10:40;18.80;99.90
7512;DHT22;9999;48.780;9.146;2022-08-27T01:13:08;18.80;99.90
7512;DHT22;9999;48.780;9.146;2022-08-27T01:15:35;18.90;99.90
7512;DHT22;9999;48.780;9.146;2022-08-27T01:18:03;18.90;99.90
7512;DHT22;9999;48.780;9.146;2022-08-27T01:20:36;19.00;99.90
7512;DHT22;9999;48.780;9.146;2022-08-27T01:23:10;19.00;99.90
7512;DHT22;9999;48.780;9.146;2022-08-27T01:25:41;19.00;99.90
7512;DHT22;9999;48.780;9.146;2022-08-27T01:28:09;19.10;99.90
7512;DHT22;9999;48.780;9.146;2022-08-27T01:30:37;19.10;99.90
7512;DHT22;9999;48.780;9.146;2022-08-27T01:33:08;19.10;99.90
7512;DHT22;9999;48.780;9.146;2022-08-27T01:35:35;19.10;99.90
7512;DHT22;9999;48.780;9.146;2022-08-27T01:38:02;19.00;99.90
7512;DHT22;9999;48.780;9.146;2022-08-27T01:40:30;19.00;99.90
7512;DHT22;9999;48.780;9.146;2022-08-27T01:42:58;19.00;99.90
7512;DHT22;9999;48.780;9.146;2022-08-27T01:45:28;19.00;99.90
7512;DHT22;9999;48.780;9.146;2022-08-27T01:47:56;19.00;99.90
7512;DHT22;9999;48.780;9.146;2022-08-27T01:50:26;19.00;99.90
7512;DHT22;9999;48.780;9.146;2022-08-27T01:52:54;19.00;99.90
7512;DHT22;9999;48.780;9.146;2022-08-27T01:55:24;19.10;99.90
7512;DHT22;9999;48.780;9.146;2022-08-27T01:57:52;19.10;99.90
7512;DHT22;9999;48.780;9.146;2022-08-27T02:00:24;19.10;99.90
7512;DHT22;9999;48.780;9.146;2022-08-27T02:02:51;19.20;99.90
7512;DHT22;9999;48.780;9.146;2022-08-27T02:05:18;19.10;99.90
7512;DHT22;9999;48.780;9.146;2022-08-27T02:07:45;19.10;99.90
7512;DHT22;9999;48.780;9.146;2022-08-27T02:10:15;19.10;99.90
7512;DHT22;9999;48.780;9.146;2022-08-27T02:12:42;19.20;99.90
7512;DHT22;9999;48.780;9.146;2022-08-27T02:15:10;19.20;99.90
7512;DHT22;9999;48.780;9.146;2022-08-27T02:17:38;19.10;99.90
7512;DHT22;9999;48.780;9.146;2022-08-27T02:20:07;19.00;99.90
7512;DHT22;9999;48.780;9.146;2022-08-27T02:22:35;19.10;99.90
7512;DHT22;9999;48.780;9.146;2022-08-27T02:25:02;19.10;99.90
7512;DHT22;9999;48.780;9.146;2022-08-27T02:27:29;19.00;99.90
7512;DHT22;9999;48.780;9.146;2022-08-27T02:29:56;19.00;99.90
7512;DHT22;9999;48.780;9.146;2022-08-27T02:32:23;19.10;99.90
7512;DHT22;9999;48.780;9.146;2022-08-27T02:34:51;19.10;99.90
7512;DHT22;9999;48.780;9.146;2022-08-27T02:37:18;19.10;99.90
7512;DHT22;9999;48.780;9.146;2022-08-27T02:39:45;19.10;99.90
7512;DHT22;9999;48.780;9.146;2022-08-27T02:42:12;19.10;99.90
7512;DHT22;9999;48.780;9.146;2022-08-27T02:44:39;19.10;99.90
7512;DHT22;9999;48.780;9.146;2022-08-27T02:47:06;19.10;99.90
7512;DHT22;9999;48.780;9.146;2022-08-27T02:49:33;19.00;99.90
7512;DHT22;9999;48.780;9.146;2022-08-27T02:52:01;19.00;99.90
7512;DHT22;9999;48.780;9.146;2022-08-27T02:54:28;18.90;99.90
7512;DHT22;9999;48.780;9.146;2022-08-27T02:56:55;18.90;99.90
7512;DHT22;9999;48.780;9.146;2022-08-27T02:59:22;18.90;99.90
7512;DHT22;9999;48.780;9.146;2022-08-27T03:01:49;18.80;99.90
7512;DHT22;9999;48.780;9.146;2022-08-27T03:04:17;18.80;99.90
7512;DHT22;9999;48.780;9.146;2022-08-27T03:06:44;18.80;99.90
7512;DHT22;9999;48.780;9.146;2022-08-27T03:09:12;18.80;99.90
7512;DHT22;9999;48.780;9.146;2022-08-27T03:11:40;18.80;99.90
7512;DHT22;9999;48.780;9.146;2022-08-27T03:14:07;18.70;99.90
7512;DHT22;9999;48.780;9.146;2022-08-27T03:16:35;18.80;99.90
7512;DHT22;9999;48.780;9.146;2022-08-27T03:19:03;18.60;99.90
7512;DHT22;9999;48.780;9.146;2022-08-27T03:21:31;18.70;99.90
7512;DHT22;9999;48.780;9.146;2022-08-27T03:23:58;18.70;99.90
7512;DHT22;9999;48.780;9.146;2022-08-27T03:26:27;18.80;99.90
7512;DHT22;9999;48.780;9.146;2022-08-27T03:28:54;18.90;99.90
7512;DHT22;9999;48.780;9.146;2022-08-27T03:31:23;18.90;99.90
7512;DHT22;9999;48.780;9.146;2022-08-27T03:33:52;18.90;99.90
7512;DHT22;9999;48.780;9.146;2022-08-27T03:36:20;18.90;99.90
7512;DHT22;9999;48.780;9.146;2022-08-27T03:38:47;18.90;99.90
7512;DHT22;9999;48.780;9.146;2022-08-27T03:41:14;18.90;99.90
7512;DHT22;9999;48.780;9.146;2022-08-27T03:43:44;18.90;99.90
7512;DHT22;9999;48.780;9.146;2022-08-27T03:46:12;18.90;99.90
7512;DHT22;9999;48.780;9.146;2022-08-27T03:48:39;18.90;99.90
7512;DHT22;9999;48.780;9.146;2022-08-27T03:51:08;18.90;99.90
7512;DHT22;9999;48.780;9.146;2022-08-27T03:53:36;18.80;99.90
7512;DHT22;9999;48.780;9.146;2022-08-27T03:56:03;18.80;99.90
7512;DHT22;9999;48.780;9.146;2022-08-27T03:58:30;18.80;99.90
7512;DHT22;9999;48.780;9.146;2022-08-27T04:00:59;18.80;99.90
7512;DHT22;9999;48.780;9.146;2022-08-27T04:03:26;18.80;99.90
7512;DHT22;9999;48.780;9.146;2022-08-27T04:05:53;18.80;99.90
7512;DHT22;9999;48.780;9.146;2022-08-27T04:08:20;18.70;99.90
7512;DHT22;9999;48.780;9.146;2022-08-27T04:10:48;18.70;99.90
7512;DHT22;9999;48.780;9.146;2022-08-27T04:13:15;18.70;99.90
7512;DHT22;9999;48.780;9.146;2022-08-27T04:15:42;18.70;99.90
7512;DHT22;9999;48.780;9.146;2022-08-27T04:18:12;18.70;99.90
7512;DHT22;9999;48.780;9.146;2022-08-27T04:20:41;18.60;99.90
7512;DHT22;9999;48.780;9.146;2022-08-27T04:23:08;18.60;99.90
7512;DHT22;9999;48.780;9.146;2022-08-27T04:25:37;18.60;99.90
7512;DHT22;9999;48.780;9.146;2022-08-27T04:28:04;18.50;99.90
7512;DHT22;9999;48.780;9.146;2022-08-27T04:30:31;18.50;99.90
7512;DHT22;9999;48.780;9.146;2022-08-27T04:32:58;18.50;99.90
7512;DHT22;9999;48.780;9.146;2022-08-27T04:35:27;18.40;99.90
7512;DHT22;9999;48.780;9.146;2022-08-27T04:37:53;18.40;99.90
7512;DHT22;9999;48.780;9.146;2022-08-27T04:40:20;18.30;99.90
7512;DHT22;9999;48.780;9.146;2022-08-27T04:42:47;18.40;99.90
7512;DHT22;9999;48.780;9.146;2022-08-27T04:45:14;18.30;99.90
7512;DHT22;9999;48.780;9.146;2022-08-27T04:47:40;18.30;99.90
7512;DHT22;9999;48.780;9.146;2022-08-27T04:50:07;18.20;99.90
7512;DHT22;9999;48.780;9.146;2022-08-27T04:52:36;18.30;99.90
7512;DHT22;9999;48.780;9.146;2022-08-27T04:55:03;18.30;99.90
7512;DHT22;9999;48.780;9.146;2022-08-27T04:57:30;18.30;99.90
7512;DHT22;9999;48.780;9.146;2022-08-27T04:59:58;18.30;99.90
7512;DHT22;9999;48.780;9.146;2022-08-27T05:02:25;18.40;99.90
7512;DHT22;9999;48.780;9.146;2022-08-27T05:04:52;18.50;99.90
7512;DHT22;9999;48.780;9.146;2022-08-27T05:07:19;18.50;99.90
7512;DHT22;9999;48.780;9.146;2022-08-27T05:09:47;18.40;99.90
7512;DHT22;9999;48.780;9.146;2022-08-27T05:12:15;18.40;99.90
7512;DHT22;9999;48.780;9.146;2022-08-27T05:14:42;18.40;99.90
7512;DHT22;9999;48.780;9.146;2022-08-27T05:17:08;18.30;99.90
7512;DHT22;9999;48.780;9.146;2022-08-27T05:19:35;18.30;99.90
7512;DHT22;9999;48.780;9.146;2022-08-27T05:22:03;18.30;99.90
7512;DHT22;9999;48.780;9.146;2022-08-27T05:24:30;18.40;99.90
7512;DHT22;9999;48.780;9.146;2022-08-27T05:26:58;18.40;99.90
7512;DHT22;9999;48.780;9.146;2022-08-27T05:29:25;18.50;99.90
7512;DHT22;9999;48.780;9.146;2022-08-27T05:31:52;18.50;99.90
7512;DHT22;9999;48.780;9.146;2022-08-27T05:34:19;18.60;99.90
7512;DHT22;9999;48.780;9.146;2022-08-27T05:36:47;18.60;99.90
7512;DHT22;9999;48.780;9.146;2022-08-27T05:39:13;18.60;99.90
7512;DHT22;9999;48.780;9.146;2022-08-27T05:41:40;18.60;99.90
7512;DHT22;9999;48.780;9.146;2022-08-27T05:44:09;18.60;99.90
7512;DHT22;9999;48.780;9.146;2022-08-27T05:46:38;18.60;99.90
7512;DHT22;9999;48.780;9.146;2022-08-27T05:49:05;18.60;99.90
7512;DHT22;9999;48.780;9.146;2022-08-27T05:51:33;18.60;99.90
7512;DHT22;9999;48.780;9.146;2022-08-27T05:54:04;18.70;99.90
7512;DHT22;9999;48.780;9.146;2022-08-27T05:56:33;18.60;99.90
7512;DHT22;9999;48.780;9.146;2022-08-27T05:59:00;18.60;99.90
7512;DHT22;9999;48.780;9.146;2022-08-27T06:01:47;18.70;99.90
7512;DHT22;9999;48.780;9.146;2022-08-27T06:04:16;18.70;99.90
7512;DHT22;9999;48.780;9.146;2022-08-27T06:06:44;18.80;99.90
7512;DHT22;9999;48.780;9.146;2022-08-27T06:09:14;18.60;99.90
7512;DHT22;9999;48.780;9.146;2022-08-27T06:11:42;18.70;99.90
7512;DHT22;9999;48.780;9.146;2022-08-27T06:14:08;18.70;99.90
7512;DHT22;9999;48.780;9.146;2022-08-27T06:16:36;18.70;99.90
7512;DHT22;9999;48.780;9.146;2022-08-27T06:19:06;18.70;99.90
7512;DHT22;9999;48.780;9.146;2022-08-27T06:21:33;18.70;99.90
7512;DHT22;9999;48.780;9.146;2022-08-27T06:24:00;18.70;99.90
7512;DHT22;9999;48.780;9.146;2022-08-27T06:26:27;18.70;99.90
7512;DHT22;9999;48.780;9.146;2022-08-27T06:28:54;18.70;99.90
7512;DHT22;9999;48.780;9.146;2022-08-27T06:31:23;18.80;99.90
7512;DHT22;9999;48.780;9.146;2022-08-27T06:33:51;18.80;99.90
7512;DHT22;9999;48.780;9.146;2022-08-27T06:36:21;18.70;99.90
7512;DHT22;9999;48.780;9.146;2022-08-27T06:38:49;18.80;99.90
7512;DHT22;9999;48.780;9.146;2022-08-27T06:41:18;18.70;99.90
7512;DHT22;9999;48.780;9.146;2022-08-27T06:43:45;18.70;99.90
7512;DHT22;9999;48.780;9.146;2022-08-27T06:46:15;18.80;99.90
7512;DHT22;9999;48.780;9.146;2022-08-27T06:48:43;18.70;99.90
7512;DHT22;9999;48.780;9.146;2022-08-27T06:51:16;18.70;99.90
7512;DHT22;9999;48.780;9.146;2022-08-27T06:53:46;18.80;99.90
7512;DHT22;9999;48.780;9.146;2022-08-27T06:56:14;18.80;99.90
7512;DHT22;9999;48.780;9.146;2022-08-27T06:58:42;18.80;99.90
7512;DHT22;9999;48.780;9.146;2022-08-27T07:01:14;18.80;99.90
7512;DHT22;9999;48.780;9.146;2022-08-27T07:03:42;18.80;99.90
7512;DHT22;9999;48.780;9.146;2022-08-27T07:06:10;18.80;99.90
7512;DHT22;9999;48.780;9.146;2022-08-27T07:08:38;18.90;99.90
7512;DHT22;9999;48.780;9.146;2022-08-27T07:11:07;18.90;99.90
7512;DHT22;9999;48.780;9.146;2022-08-27T07:13:36;18.90;99.90
7512;DHT22;9999;48.780;9.146;2022-08-27T07:16:04;19.10;99.90
7512;DHT22;9999;48.780;9.146;2022-08-27T07:18:31;19.10;99.90
7512;DHT22;9999;48.780;9.146;2022-08-27T07:20:58;19.20;99.90
7512;DHT22;9999;48.780;9.146;2022-08-27T07:23:25;19.20;99.90
7512;DHT22;9999;48.780;9.146;2022-08-27T07:25:53;19.20;99.90
7512;DHT22;9999;48.780;9.146;2022-08-27T07:28:21;19.20;99.90
7512;DHT22;9999;48.780;9.146;2022-08-27T07:30:48;19.20;99.90
7512;DHT22;9999;48.780;9.146;2022-08-27T07:33:15;19.20;99.90
7512;DHT22;9999;48.780;9.146;2022-08-27T07:35:42;19.20;99.90
7512;DHT22;9999;48.780;9.146;2022-08-27T07:38:11;19.20;99.90
7512;DHT22;9999;48.780;9.146;2022-08-27T07:40:38;19.20;99.90
7512;DHT22;9999;48.780;9.146;2022-08-27T07:43:05;19.10;99.90
7512;DHT22;9999;48.780;9.146;2022-08-27T07:45:51;19.10;99.90
7512;DHT22;9999;48.780;9.146;2022-08-27T07:48:21;19.20;99.90
7512;DHT22;9999;48.780;9.146;2022-08-27T07:50:48;19.20;99.90
7512;DHT22;9999;48.780;9.146;2022-08-27T07:53:15;19.20;99.90
7512;DHT22;9999;48.780;9.146;2022-08-27T07:55:42;19.30;99.90
7512;DHT22;9999;48.780;9.146;2022-08-27T07:58:09;19.30;99.90
7512;DHT22;9999;48.780;9.146;2022-08-27T08:00:40;19.30;99.90
7512;DHT22;9999;48.780;9.146;2022-08-27T08:03:08;19.30;99.90
7512;DHT22;9999;48.780;9.146;2022-08-27T08:05:35;19.30;99.90
7512;DHT22;9999;48.780;9.146;2022-08-27T08:08:06;19.40;99.90
7512;DHT22;9999;48.780;9.146;2022-08-27T08:10:34;19.40;99.90
7512;DHT22;9999;48.780;9.146;2022-08-27T08:13:01;19.40;99.90
7512;DHT22;9999;48.780;9.146;2022-08-27T08:15:28;19.50;99.90
7512;DHT22;9999;48.780;9.146;2022-08-27T08:17:55;19.40;99.90
7512;DHT22;9999;48.780;9.146;2022-08-27T08:20:23;19.40;99.90
7512;DHT22;9999;48.780;9.146;2022-08-27T08:22:50;19.50;99.90
7512;DHT22;9999;48.780;9.146;2022-08-27T08:25:17;19.50;99.90
7512;DHT22;9999;48.780;9.146;2022-08-27T08:27:44;19.50;99.90
7512;DHT22;9999;48.780;9.146;2022-08-27T08:30:12;19.50;99.90
7512;DHT22;9999;48.780;9.146;2022-08-27T08:32:39;19.50;99.90
7512;DHT22;9999;48.780;9.146;2022-08-27T08:35:08;19.50;99.90
7512;DHT22;9999;48.780;9.146;2022-08-27T08:37:37;19.50;99.90
7512;DHT22;9999;48.780;9.146;2022-08-27T08:40:05;19.60;99.90
7512;DHT22;9999;48.780;9.146;2022-08-27T08:42:38;19.50;99.90
7512;DHT22;9999;48.780;9.146;2022-08-27T08:45:07;19.40;99.90
7512;DHT22;9999;48.780;9.146;2022-08-27T08:47:41;19.30;99.90
7512;DHT22;9999;48.780;9.146;2022-08-27T08:50:12;19.30;99.90
7512;DHT22;9999;48.780;9.146;2022-08-27T08:52:49;19.20;99.90
7512;DHT22;9999;48.780;9.146;2022-08-27T08:55:37;19.20;99.90
7512;DHT22;9999;48.780;9.146;2022-08-27T08:58:16;19.30;99.90
7512;DHT22;9999;48.780;9.146;2022-08-27T09:00:47;19.30;99.90
7512;DHT22;9999;48.780;9.146;2022-08-27T09:03:15;19.40;99.90
7512;DHT22;9999;48.780;9.146;2022-08-27T09:05:46;19.50;99.90
7512;DHT22;9999;48.780;9.146;2022-08-27T09:08:21;19.60;99.90
7512;DHT22;9999;48.780;9.146;2022-08-27T09:10:54;19.70;99.90
7512;DHT22;9999;48.780;9.146;2022-08-27T09:13:27;19.70;99.90
7512;DHT22;9999;48.780;9.146;2022-08-27T09:15:57;19.80;99.90
7512;DHT22;9999;48.780;9.146;2022-08-27T09:18:24;19.70;99.90
7512;DHT22;9999;48.780;9.146;2022-08-27T09:20:56;19.70;99.90
7512;DHT22;9999;48.780;9.146;2022-08-27T09:23:35;19.60;99.90
7512;DHT22;9999;48.780;9.146;2022-08-27T09:26:03;19.70;99.90
7512;DHT22;9999;48.780;9.146;2022-08-27T09:28:29;19.50;99.90
7512;DHT22;9999;48.780;9.146;2022-08-27T09:31:16;19.60;99.90
7512;DHT22;9999;48.780;9.146;2022-08-27T09:33:43;19.70;99.90
7512;DHT22;9999;48.780;9.146;2022-08-27T09:36:12;19.80;99.90
7512;DHT22;9999;48.780;9.146;2022-08-27T09:38:50;19.70;99.90
7512;DHT22;9999;48.780;9.146;2022-08-27T09:41:22;19.70;99.90
7512;DHT22;9999;48.780;9.146;2022-08-27T09:43:57;19.60;99.90
7512;DHT22;9999;48.780;9.146;2022-08-27T09:46:24;19.50;99.90
7512;DHT22;9999;48.780;9.146;2022-08-27T09:48:52;19.60;99.90
7512;DHT22;9999;48.780;9.146;2022-08-27T09:51:20;19.60;99.90
7512;DHT22;9999;48.780;9.146;2022-08-27T09:53:51;19.70;99.90
7512;DHT22;9999;48.780;9.146;2022-08-27T09:56:25;19.60;99.90
7512;DHT22;9999;48.780;9.146;2022-08-27T09:58:55;19.60;99.90
7512;DHT22;9999;48.780;9.146;2022-08-27T10:01:28;19.60;99.90
7512;DHT22;9999;48.780;9.146;2022-08-27T10:04:07;19.60;99.90
7512;DHT22;9999;48.780;9.146;2022-08-27T10:06:34;19.60;99.90
7512;DHT22;9999;48.780;9.146;2022-08-27T10:09:08;19.50;99.90
7512;DHT22;9999;48.780;9.146;2022-08-27T10:11:39;19.40;99.90
7512;DHT22;9999;48.780;9.146;2022-08-27T10:14:13;19.40;99.90
7512;DHT22;9999;48.780;9.146;2022-08-27T10:16:52;19.40;99.90
7512;DHT22;9999;48.780;9.146;2022-08-27T10:19:34;19.40;99.90
7512;DHT22;9999;48.780;9.146;2022-08-27T10:22:13;19.50;99.90
7512;DHT22;9999;48.780;9.146;2022-08-27T10:24:54;19.60;99.90
7512;DHT22;9999;48.780;9.146;2022-08-27T10:27:28;19.80;99.90
7512;DHT22;9999;48.780;9.146;2022-08-27T10:30:03;19.80;99.90
7512;DHT22;9999;48.780;9.146;2022-08-27T10:32:46;19.90;99.90
7512;DHT22;9999;48.780;9.146;2022-08-27T10:35:20;20.00;99.90
7512;DHT22;9999;48.780;9.146;2022-08-27T10:37:55;20.00;99.90
7512;DHT22;9999;48.780;9.146;2022-08-27T10:40:28;19.90;99.90
7512;DHT22;9999;48.780;9.146;2022-08-27T10:43:05;20.00;99.90
7512;DHT22;9999;48.780;9.146;2022-08-27T10:45:42;20.10;99.90
7512;DHT22;9999;48.780;9.146;2022-08-27T10:48:20;20.00;99.90
7512;DHT22;9999;48.780;9.146;2022-08-27T10:50:53;20.10;99.90
7512;DHT22;9999;48.780;9.146;2022-08-27T10:53:25;20.00;99.90
7512;DHT22;9999;48.780;9.146;2022-08-27T10:56:10;20.00;99.90
7512;DHT22;9999;48.780;9.146;2022-08-27T10:58:52;19.90;99.90
7512;DHT22;9999;48.780;9.146;2022-08-27T11:01:35;19.90;99.90
7512;DHT22;9999;48.780;9.146;2022-08-27T11:04:07;19.90;99.90
7512;DHT22;9999;48.780;9.146;2022-08-27T11:06:37;19.80;99.90
7512;DHT22;9999;48.780;9.146;2022-08-27T11:09:09;19.80;99.90
7512;DHT22;9999;48.780;9.146;2022-08-27T11:11:40;19.90;99.90
7512;DHT22;9999;48.780;9.146;2022-08-27T11:14:25;19.90;99.90
7512;DHT22;9999;48.780;9.146;2022-08-27T11:16:56;19.90;99.90
7512;DHT22;9999;48.780;9.146;2022-08-27T11:19:26;20.00;99.90
7512;DHT22;9999;48.780;9.146;2022-08-27T11:22:03;20.00;99.90
7512;DHT22;9999;48.780;9.146;2022-08-27T11:24:38;20.00;99.90
7512;DHT22;9999;48.780;9.146;2022-08-27T11:27:08;19.90;99.90
7512;DHT22;9999;48.780;9.146;2022-08-27T11:29:42;19.70;99.90
7512;DHT22;9999;48.780;9.146;2022-08-27T11:32:17;19.50;99.90
7512;DHT22;9999;48.780;9.146;2022-08-27T11:34:50;19.50;99.90
7512;DHT22;9999;48.780;9.146;2022-08-27T11:37:32;19.50;99.90
7512;DHT22;9999;48.780;9.146;2022-08-27T11:43:02;19.50;99.90
7512;DHT22;9999;48.780;9.146;2022-08-27T11:45:32;19.60;99.90
7512;DHT22;9999;48.780;9.146;2022-08-27T11:48:15;19.70;99.90
7512;DHT22;9999;48.780;9.146;2022-08-27T11:50:52;19.60;99.90
7512;DHT22;9999;48.780;9.146;2022-08-27T11:53:24;19.60;99.90
7512;DHT22;9999;48.780;9.146;2022-08-27T11:55:51;19.60;99.90
7512;DHT22;9999;48.780;9.146;2022-08-27T11:58:27;19.70;99.90
7512;DHT22;9999;48.780;9.146;2022-08-27T12:00:55;19.70;99.90
7512;DHT22;9999;48.780;9.146;2022-08-27T12:03:26;19.80;99.90
7512;DHT22;9999;48.780;9.146;2022-08-27T12:06:18;19.80;99.90
7512;DHT22;9999;48.780;9.146;2022-08-27T12:08:45;19.90;99.90
7512;DHT22;9999;48.780;9.146;2022-08-27T12:11:25;19.90;99.90
7512;DHT22;9999;48.780;9.146;2022-08-27T12:14:14;20.00;99.90
7512;DHT22;9999;48.780;9.146;2022-08-27T12:16:46;20.00;99.90
7512;DHT22;9999;48.780;9.146;2022-08-27T12:19:25;20.10;99.90
7512;DHT22;9999;48.780;9.146;2022-08-27T12:22:06;19.90;99.90
7512;DHT22;9999;48.780;9.146;2022-08-27T12:24:48;20.00;99.90
7512;DHT22;9999;48.780;9.146;2022-08-27T12:27:26;20.00;99.90
7512;DHT22;9999;48.780;9.146;2022-08-27T12:29:57;20.10;99.90
7512;DHT22;9999;48.780;9.146;2022-08-27T12:32:28;20.10;99.90
7512;DHT22;9999;48.780;9.146;2022-08-27T12:35:03;20.20;99.90
7512;DHT22;9999;48.780;9.146;2022-08-27T12:37:35;20.30;99.90
7512;DHT22;9999;48.780;9.146;2022-08-27T12:40:10;20.30;99.90
7512;DHT22;9999;48.780;9.146;2022-08-27T12:42:37;20.30;99.90
7512;DHT22;9999;48.780;9.146;2022-08-27T12:45:06;20.30;99.90
7512;DHT22;9999;48.780;9.146;2022-08-27T12:47:39;20.10;99.90
7512;DHT22;9999;48.780;9.146;2022-08-27T12:50:07;20.00;99.90
7512;DHT22;9999;48.780;9.146;2022-08-27T12:55:36;20.10;99.90
7512;DHT22;9999;48.780;9.146;2022-08-27T12:58:09;20.10;99.90
7512;DHT22;9999;48.780;9.146;2022-08-27T13:03:38;20.30;99.90
7512;DHT22;9999;48.780;9.146;2022-08-27T13:06:15;20.30;99.90
7512;DHT22;9999;48.780;9.146;2022-08-27T13:08:42;20.40;99.90
7512;DHT22;9999;48.780;9.146;2022-08-27T13:11:16;20.40;99.90
7512;DHT22;9999;48.780;9.146;2022-08-27T13:13:44;20.50;99.90
7512;DHT22;9999;48.780;9.146;2022-08-27T13:16:14;20.50;99.90
7512;DHT22;9999;48.780;9.146;2022-08-27T13:18:46;20.50;99.90
7512;DHT22;9999;48.780;9.146;2022-08-27T13:21:19;20.50;99.90
7512;DHT22;9999;48.780;9.146;2022-08-27T13:23:51;20.50;99.90
7512;DHT22;9999;48.780;9.146;2022-08-27T13:26:21;20.60;99.90
7512;DHT22;9999;48.780;9.146;2022-08-27T13:28:48;20.70;99.90
7512;DHT22;9999;48.780;9.146;2022-08-27T13:31:19;20.60;99.90
7512;DHT22;9999;48.780;9.146;2022-08-27T13:33:46;20.70;99.90
7512;DHT22;9999;48.780;9.146;2022-08-27T13:36:25;20.70;99.90
7512;DHT22;9999;48.780;9.146;2022-08-27T13:38:52;20.70;99.90
7512;DHT22;9999;48.780;9.146;2022-08-27T13:41:26;20.80;99.90
7512;DHT22;9999;48.780;9.146;2022-08-27T13:43:54;20.80;99.90
7512;DHT22;9999;48.780;9.146;2022-08-27T13:46:26;20.90;99.90
7512;DHT22;9999;48.780;9.146;2022-08-27T13:48:56;21.00;99.90
7512;DHT22;9999;48.780;9.146;2022-08-27T13:51:27;21.00;99.90
7512;DHT22;9999;48.780;9.146;2022-08-27T13:53:54;20.90;99.90
7512;DHT22;9999;48.780;9.146;2022-08-27T13:56:40;20.90;99.90
7512;DHT22;9999;48.780;9.146;2022-08-27T13:59:09;20.80;99.90
7512;DHT22;9999;48.780;9.146;2022-08-27T14:01:42;20.90;99.90
7512;DHT22;9999;48.780;9.146;2022-08-27T14:04:20;21.10;99.90
7512;DHT22;9999;48.780;9.146;2022-08-27T14:06:47;21.20;99.90
7512;DHT22;9999;48.780;9.146;2022-08-27T14:09:17;21.20;99.90
7512;DHT22;9999;48.780;9.146;2022-08-27T14:11:44;21.20;99.90
7512;DHT22;9999;48.780;9.146;2022-08-27T14:14:13;21.20;99.90
7512;DHT22;9999;48.780;9.146;2022-08-27T14:16:42;21.20;99.90
7512;DHT22;9999;48.780;9.146;2022-08-27T14:19:11;21.30;99.90
7512;DHT22;9999;48.780;9.146;2022-08-27T14:21:40;21.30;99.90
7512;DHT22;9999;48.780;9.146;2022-08-27T14:24:08;21.30;99.90
7512;DHT22;9999;48.780;9.146;2022-08-27T14:26:35;21.40;99.90
7512;DHT22;9999;48.780;9.146;2022-08-27T14:29:02;21.30;99.90
7512;DHT22;9999;48.780;9.146;2022-08-27T14:31:29;21.20;99.90
7512;DHT22;9999;48.780;9.146;2022-08-27T14:33:58;21.20;99.90
7512;DHT22;9999;48.780;9.146;2022-08-27T14:36:28;21.20;99.90
7512;DHT22;9999;48.780;9.146;2022-08-27T14:38:57;21.20;99.90
7512;DHT22;9999;48.780;9.146;2022-08-27T14:41:23;21.30;99.90
7512;DHT22;9999;48.780;9.146;2022-08-27T14:43:50;21.40;99.90
7512;DHT22;9999;48.780;9.146;2022-08-27T14:46:23;21.40;99.90
7512;DHT22;9999;48.780;9.146;2022-08-27T14:48:51;21.40;99.90
7512;DHT22;9999;48.780;9.146;2022-08-27T14:51:22;21.30;99.90
7512;DHT22;9999;48.780;9.146;2022-08-27T14:53:51;21.30;99.90
7512;DHT22;9999;48.780;9.146;2022-08-27T14:56:19;21.20;99.90
7512;DHT22;9999;48.780;9.146;2022-08-27T14:58:46;21.20;99.90
7512;DHT22;9999;48.780;9.146;2022-08-27T15:01:14;21.30;99.90
7512;DHT22;9999;48.780;9.146;2022-08-27T15:03:44;21.20;99.90
7512;DHT22;9999;48.780;9.146;2022-08-27T15:06:13;21.20;99.90
7512;DHT22;9999;48.780;9.146;2022-08-27T15:08:42;21.10;99.90
7512;DHT22;9999;48.780;9.146;2022-08-27T15:11:15;21.10;99.90
7512;DHT22;9999;48.780;9.146;2022-08-27T15:13:42;21.10;99.90
7512;DHT22;9999;48.780;9.146;2022-08-27T15:16:11;21.10;99.90
7512;DHT22;9999;48.780;9.146;2022-08-27T15:18:38;21.10;99.90
7512;DHT22;9999;48.780;9.146;2022-08-27T15:21:05;21.20;99.90
7512;DHT22;9999;48.780;9.146;2022-08-27T15:23:32;21.10;99.90
7512;DHT22;9999;48.780;9.146;2022-08-27T15:26:00;21.00;99.90
7512;DHT22;9999;48.780;9.146;2022-08-27T15:28:27;20.80;99.90
7512;DHT22;9999;48.780;9.146;2022-08-27T15:30:53;20.70;99.90
7512;DHT22;9999;48.780;9.146;2022-08-27T15:33:20;20.70;99.90
7512;DHT22;9999;48.780;9.146;2022-08-27T15:35:47;20.80;99.90
7512;DHT22;9999;48.780;9.146;2022-08-27T15:38:14;20.90;99.90
7512;DHT22;9999;48.780;9.146;2022-08-27T15:40:41;21.00;99.90
7512;DHT22;9999;48.780;9.146;2022-08-27T15:43:09;20.90;99.90
7512;DHT22;9999;48.780;9.146;2022-08-27T15:45:37;21.00;99.90
7512;DHT22;9999;48.780;9.146;2022-08-27T15:48:04;21.10;99.90
7512;DHT22;9999;48.780;9.146;2022-08-27T15:50:32;21.10;99.90
7512;DHT22;9999;48.780;9.146;2022-08-27T15:53:05;21.20;99.90
7512;DHT22;9999;48.780;9.146;2022-08-27T15:55:34;21.20;99.90
7512;DHT22;9999;48.780;9.146;2022-08-27T15:58:02;21.10;99.90
7512;DHT22;9999;48.780;9.146;2022-08-27T16:00:32;21.10;99.90
7512;DHT22;9999;48.780;9.146;2022-08-27T16:03:00;21.10;99.90
7512;DHT22;9999;48.780;9.146;2022-08-27T16:05:31;21.10;99.90
7512;DHT22;9999;48.780;9.146;2022-08-27T16:07:58;21.10;99.90
7512;DHT22;9999;48.780;9.146;2022-08-27T16:10:25;21.00;99.90
7512;DHT22;9999;48.780;9.146;2022-08-27T16:12:52;21.10;99.90
7512;DHT22;9999;48.780;9.146;2022-08-27T16:15:19;21.10;99.90
7512;DHT22;9999;48.780;9.146;2022-08-27T16:17:49;21.10;99.90
7512;DHT22;9999;48.780;9.146;2022-08-27T16:20:17;21.00;99.90
7512;DHT22;9999;48.780;9.146;2022-08-27T16:22:45;21.00;99.90
7512;DHT22;9999;48.780;9.146;2022-08-27T16:25:12;21.00;99.90
7512;DHT22;9999;48.780;9.146;2022-08-27T16:27:39;21.00;99.90